Time;durP1;ratioP1;P1;durP2;ratioP2;P2;SDS_P1;SDS_P2;PMS_P1;PMS_P2;Temp;Humidity;BMP_temperature;BMP_pressure;BME280_temperature;BME280_humidity;BME280_pressure;Samples;Min_cycle;Max_cycle;Signal;HPM_P1;HPM_P2
2023/10/18 00:00:25;;;;;;;15.45;13.82;;;4.20;1.00;;;;;;5112044;27;20318;-75
2023/10/18 00:02:53;;;;;;;17.02;15.55;;;4.20;1.00;;;;;;5108129;27;20713;-74
2023/10/18 00:05:22;;;;;;;16.05;14.40;;;4.20;1.00;;;;;;5088221;27;20239;-75
2023/10/18 00:07:51;;;;;;;16.08;14.40;;;4.20;1.00;;;;;;5107256;27;20235;-77
2023/10/18 00:10:19;;;;;;;16.60;15.00;;;4.20;1.00;;;;;;5109538;27;20331;-74
2023/10/18 00:12:49;;;;;;;16.65;14.95;;;4.10;1.00;;;;;;5106531;27;20231;-73
2023/10/18 00:15:16;;;;;;;17.27;15.52;;;4.10;1.00;;;;;;5107414;27;20239;-73
2023/10/18 00:17:45;;;;;;;16.25;14.32;;;4.10;1.00;;;;;;5104396;27;20284;-73
2023/10/18 00:20:15;;;;;;;15.30;13.90;;;4.10;1.00;;;;;;5110014;27;20231;-74
2023/10/18 00:22:44;;;;;;;18.58;15.82;;;4.10;1.00;;;;;;5103592;27;20247;-73
2023/10/18 00:25:11;;;;;;;16.30;14.90;;;4.00;1.00;;;;;;5108904;27;20236;-73
2023/10/18 00:27:39;;;;;;;16.77;15.02;;;4.00;1.00;;;;;;5110543;27;20246;-74
2023/10/18 00:30:11;;;;;;;16.50;14.80;;;4.00;1.00;;;;;;5104894;27;20324;-75
2023/10/18 00:32:38;;;;;;;15.75;14.27;;;4.00;1.00;;;;;;5104115;27;20624;-73
2023/10/18 00:35:12;;;;;;;15.55;13.85;;;4.00;1.00;;;;;;5103636;27;20786;-76
2023/10/18 00:37:41;;;;;;;16.30;14.70;;;3.90;1.00;;;;;;5093872;27;20377;-77
2023/10/18 00:40:20;;;;;;;19.33;17.17;;;3.90;1.00;;;;;;5103446;27;20726;-75
2023/10/18 00:42:51;;;;;;;16.77;15.07;;;3.90;1.00;;;;;;5108349;27;21183;-79
2023/10/18 00:45:21;;;;;;;16.88;15.27;;;4.00;1.00;;;;;;5105455;27;20240;-73
2023/10/18 00:47:48;;;;;;;16.98;15.35;;;4.00;1.00;;;;;;5103110;27;20231;-75
2023/10/18 00:50:18;;;;;;;17.15;15.65;;;4.00;1.00;;;;;;5091017;27;20259;-74
2023/10/18 00:52:46;;;;;;;15.75;14.07;;;4.10;1.00;;;;;;5107803;27;20230;-74
2023/10/18 00:55:13;;;;;;;17.10;15.40;;;4.10;1.00;;;;;;5108225;27;20665;-74
2023/10/18 00:57:40;;;;;;;16.95;15.18;;;4.10;1.00;;;;;;5106687;27;20318;-73
2023/10/18 01:00:11;;;;;;;16.48;14.65;;;4.10;1.00;;;;;;5106435;27;20330;-76
2023/10/18 01:02:42;;;;;;;16.90;15.27;;;4.10;1.00;;;;;;5107295;27;20239;-77
2023/10/18 01:05:15;;;;;;;16.45;15.05;;;4.10;1.00;;;;;;5107588;27;20329;-79
2023/10/18 01:07:41;;;;;;;15.50;14.10;;;4.10;1.00;;;;;;5104029;27;20320;-76
2023/10/18 01:10:09;;;;;;;16.80;15.30;;;4.10;1.00;;;;;;5109372;27;20646;-77
2023/10/18 01:12:37;;;;;;;17.17;15.48;;;4.10;1.00;;;;;;5107557;27;20460;-78
2023/10/18 01:15:07;;;;;;;15.90;14.50;;;4.10;1.00;;;;;;5108988;27;20288;-77
2023/10/18 01:17:36;;;;;;;14.73;13.43;;;4.00;1.00;;;;;;5103380;27;20231;-78
2023/10/18 01:20:13;;;;;;;16.00;14.50;;;4.00;1.00;;;;;;5105267;27;20241;-78
2023/10/18 01:22:42;;;;;;;16.30;14.68;;;3.90;1.00;;;;;;5106603;27;20242;-79
2023/10/18 01:25:13;;;;;;;17.75;14.98;;;3.90;1.00;;;;;;5101408;27;20317;-79
2023/10/18 01:27:43;;;;;;;16.42;14.73;;;3.80;1.00;;;;;;5107999;27;20231;-78
2023/10/18 01:30:14;;;;;;;15.32;13.85;;;3.80;1.00;;;;;;5106244;27;20315;-78
2023/10/18 01:32:42;;;;;;;15.40;13.80;;;3.80;1.00;;;;;;5107563;27;20683;-77
2023/10/18 01:35:11;;;;;;;16.42;14.93;;;3.70;1.00;;;;;;5104643;27;20239;-77
2023/10/18 01:37:39;;;;;;;14.88;13.57;;;3.70;1.00;;;;;;5104429;27;21091;-78
2023/10/18 01:40:20;;;;;;;14.88;13.57;;;3.70;1.00;;;;;;5102504;27;21111;-78
2023/10/18 01:42:55;;;;;;;14.63;13.30;;;3.60;1.00;;;;;;5107103;27;20255;-78
2023/10/18 01:45:23;;;;;;;17.60;15.77;;;3.60;1.00;;;;;;5105776;27;20238;-77
2023/10/18 01:47:52;;;;;;;15.55;13.70;;;3.60;1.00;;;;;;5105724;27;20262;-78
2023/10/18 01:50:21;;;;;;;14.93;13.73;;;3.60;1.00;;;;;;5104130;27;20268;-77
2023/10/18 01:52:48;;;;;;;15.40;14.00;;;3.60;1.00;;;;;;5105080;27;20892;-79
2023/10/18 01:55:17;;;;;;;21.52;19.23;;;3.60;1.00;;;;;;5106605;27;22356;-78
2023/10/18 01:57:45;;;;;;;15.38;13.98;;;3.60;1.00;;;;;;5105228;27;20235;-80
2023/10/18 02:00:19;;;;;;;15.10;13.80;;;3.50;1.00;;;;;;5109171;27;20235;-78
2023/10/18 02:02:48;;;;;;;15.57;14.07;;;3.50;1.00;;;;;;5102551;27;20238;-78
2023/10/18 02:05:18;;;;;;;15.80;13.98;;;3.60;1.00;;;;;;5106271;27;20418;-77
2023/10/18 02:07:47;;;;;;;15.02;13.50;;;3.50;1.00;;;;;;5096067;27;20235;-78
2023/10/18 02:10:21;;;;;;;15.30;13.80;;;3.50;1.00;;;;;;5105715;27;20269;-77
2023/10/18 02:12:48;;;;;;;14.02;12.73;;;3.50;1.00;;;;;;5101452;27;20341;-79
2023/10/18 02:15:18;;;;;;;16.17;14.50;;;3.50;1.00;;;;;;5103277;27;20243;-77
2023/10/18 02:17:51;;;;;;;15.35;13.75;;;3.50;1.00;;;;;;5103728;27;20242;-79
2023/10/18 02:20:26;;;;;;;14.15;12.80;;;3.50;1.00;;;;;;5102724;27;20251;-77
2023/10/18 02:22:57;;;;;;;14.30;12.90;;;3.50;1.00;;;;;;5098951;27;20219;-78
2023/10/18 02:25:36;;;;;;;14.23;12.90;;;3.60;1.00;;;;;;5106417;27;20262;-76
2023/10/18 02:28:08;;;;;;;16.20;14.73;;;3.60;1.00;;;;;;5104687;27;20235;-74
2023/10/18 02:30:38;;;;;;;13.82;12.63;;;3.50;1.00;;;;;;5104300;27;20992;-77
2023/10/18 02:33:06;;;;;;;13.68;12.45;;;3.60;1.00;;;;;;5101198;27;20238;-78
2023/10/18 02:35:40;;;;;;;14.10;12.60;;;3.50;1.00;;;;;;5106290;27;20239;-78
2023/10/18 02:38:09;;;;;;;13.55;12.25;;;3.50;1.00;;;;;;5106956;27;20245;-78
2023/10/18 02:40:40;;;;;;;13.20;11.95;;;3.50;1.00;;;;;;5106959;27;20235;-76
2023/10/18 02:43:11;;;;;;;16.73;11.43;;;3.50;1.00;;;;;;5074492;27;20239;-75
2023/10/18 02:45:42;;;;;;;12.73;11.43;;;3.50;1.00;;;;;;5104467;27;20869;-75
2023/10/18 02:48:13;;;;;;;18.33;12.93;;;3.50;1.00;;;;;;5103992;27;20248;-75
2023/10/18 02:50:41;;;;;;;14.13;12.68;;;3.40;1.00;;;;;;5103272;27;21012;-75
2023/10/18 02:53:08;;;;;;;13.25;12.02;;;3.40;1.00;;;;;;5105255;27;20239;-74
2023/10/18 02:55:38;;;;;;;12.88;11.75;;;3.40;1.00;;;;;;5106458;27;21068;-75
2023/10/18 02:58:08;;;;;;;16.17;14.35;;;3.30;1.00;;;;;;5104072;27;20817;-74
2023/10/18 03:00:44;;;;;;;12.98;11.70;;;3.30;1.00;;;;;;5102610;27;20858;-75
2023/10/18 03:03:13;;;;;;;14.32;12.68;;;3.30;1.00;;;;;;5102773;27;20243;-77
2023/10/18 03:05:44;;;;;;;13.23;11.93;;;3.30;1.00;;;;;;5104711;27;20231;-75
2023/10/18 03:08:12;;;;;;;14.98;13.57;;;3.30;1.00;;;;;;5104653;27;20224;-74
2023/10/18 03:10:47;;;;;;;15.02;13.43;;;3.40;1.00;;;;;;5102118;27;20337;-74
2023/10/18 03:13:17;;;;;;;13.35;12.10;;;3.30;1.00;;;;;;5104276;27;20276;-75
2023/10/18 03:16:03;;;;;;;14.50;13.10;;;3.40;1.00;;;;;;5103691;27;20289;-74
2023/10/18 03:18:30;;;;;;;13.90;12.57;;;3.40;1.00;;;;;;5104307;27;20303;-74
2023/10/18 03:20:57;;;;;;;13.35;11.95;;;3.40;1.00;;;;;;5101560;27;20323;-74
2023/10/18 03:23:26;;;;;;;14.00;12.60;;;3.50;1.00;;;;;;5095734;27;22202;-76
2023/10/18 03:26:00;;;;;;;14.93;13.32;;;3.40;1.00;;;;;;5105525;27;20769;-77
2023/10/18 03:28:34;;;;;;;15.05;12.93;;;3.30;1.00;;;;;;5101355;27;20318;-73
2023/10/18 03:31:20;;;;;;;13.93;12.52;;;3.30;1.00;;;;;;5101789;27;20681;-74
2023/10/18 03:33:48;;;;;;;15.38;13.80;;;3.40;1.00;;;;;;5104579;27;20238;-79
2023/10/18 03:36:20;;;;;;;18.63;14.63;;;3.30;1.00;;;;;;5101394;27;20238;-74
2023/10/18 03:38:53;;;;;;;14.63;13.13;;;3.30;1.00;;;;;;5105002;27;20244;-77
2023/10/18 03:41:22;;;;;;;14.85;13.40;;;3.20;1.00;;;;;;5107096;27;20731;-75
2023/10/18 03:43:49;;;;;;;14.32;13.07;;;3.10;1.00;;;;;;5105335;27;20242;-75
2023/10/18 03:46:19;;;;;;;15.80;13.10;;;3.10;1.00;;;;;;5105247;27;20760;-75
2023/10/18 03:48:54;;;;;;;14.90;13.50;;;3.10;1.00;;;;;;5105240;27;20231;-77
2023/10/18 03:51:23;;;;;;;16.80;14.57;;;3.20;1.00;;;;;;5101121;27;21421;-76
2023/10/18 03:53:52;;;;;;;15.55;13.80;;;3.20;1.00;;;;;;5104165;27;20243;-74
2023/10/18 03:56:22;;;;;;;13.85;12.50;;;3.20;1.00;;;;;;5108824;27;20743;-74
2023/10/18 03:59:00;;;;;;;15.00;13.70;;;3.10;1.00;;;;;;5104487;27;20250;-73
2023/10/18 04:01:41;;;;;;;14.82;13.40;;;3.10;1.00;;;;;;5104902;27;20739;-74
2023/10/18 04:04:17;;;;;;;13.80;12.40;;;3.10;1.00;;;;;;5099244;27;20454;-74
2023/10/18 04:06:45;;;;;;;15.70;14.10;;;3.10;1.00;;;;;;5105312;27;21189;-74
2023/10/18 04:09:16;;;;;;;14.82;13.32;;;3.00;1.00;;;;;;5106295;27;20228;-76
2023/10/18 04:11:43;;;;;;;14.75;13.35;;;3.00;1.00;;;;;;5103360;27;20236;-76
2023/10/18 04:14:16;;;;;;;14.90;13.50;;;3.00;1.00;;;;;;5104337;27;20239;-74
2023/10/18 04:16:47;;;;;;;15.13;13.80;;;2.90;1.00;;;;;;5104711;27;20258;-73
2023/10/18 04:19:19;;;;;;;14.27;12.88;;;2.90;1.00;;;;;;5105909;27;20231;-72
2023/10/18 04:21:52;;;;;;;14.10;12.77;;;2.90;1.00;;;;;;5103297;27;20255;-74
2023/10/18 04:24:20;;;;;;;16.63;13.98;;;2.90;1.00;;;;;;5103992;27;20315;-72
2023/10/18 04:26:49;;;;;;;13.48;11.60;;;2.90;1.00;;;;;;5103527;27;20240;-72
2023/10/18 04:29:25;;;;;;;15.98;13.43;;;2.90;1.00;;;;;;5103906;27;20262;-75
2023/10/18 04:31:56;;;;;;;13.48;12.18;;;2.90;1.00;;;;;;5100655;27;20309;-72
2023/10/18 04:34:24;;;;;;;14.70;12.98;;;2.90;1.00;;;;;;5105380;27;20239;-74
2023/10/18 04:36:55;;;;;;;13.85;12.45;;;2.90;1.00;;;;;;5094298;27;20238;-75
2023/10/18 04:39:22;;;;;;;13.70;12.43;;;2.90;1.00;;;;;;5101137;27;21381;-74
2023/10/18 04:41:49;;;;;;;14.07;12.43;;;2.90;1.00;;;;;;5104794;27;20749;-73
2023/10/18 04:44:20;;;;;;;13.20;11.40;;;2.90;1.00;;;;;;5108411;27;20235;-76
2023/10/18 04:46:49;;;;;;;14.50;11.88;;;2.90;1.00;;;;;;5105623;27;20322;-74
2023/10/18 04:49:22;;;;;;;14.20;12.70;;;3.00;1.00;;;;;;5103907;27;20238;-76
2023/10/18 04:51:49;;;;;;;21.73;17.77;;;3.00;1.00;;;;;;5107145;27;20223;-75
2023/10/18 04:54:16;;;;;;;16.17;12.98;;;3.00;1.00;;;;;;5105351;27;20236;-74
2023/10/18 04:56:44;;;;;;;14.68;13.27;;;2.90;1.00;;;;;;5105030;27;20727;-75
2023/10/18 04:59:11;;;;;;;15.05;12.85;;;2.90;1.00;;;;;;5087633;27;21068;-74
2023/10/18 05:01:42;;;;;;;16.73;15.02;;;2.90;1.00;;;;;;5106197;27;21010;-76
2023/10/18 05:04:20;;;;;;;13.75;12.38;;;2.90;1.00;;;;;;5110972;27;20708;-75
2023/10/18 05:06:54;;;;;;;15.95;14.25;;;2.90;1.00;;;;;;5105484;27;20303;-73
2023/10/18 05:09:29;;;;;;;13.38;12.13;;;2.80;1.00;;;;;;5089931;27;20235;-74
2023/10/18 05:11:57;;;;;;;14.65;13.10;;;2.80;1.00;;;;;;5102241;27;20360;-75
2023/10/18 05:14:40;;;;;;;15.93;13.85;;;2.80;1.00;;;;;;5107782;27;20247;-73
2023/10/18 05:19:49;;;;;;;16.15;14.52;;;2.80;1.00;;;;;;5097733;27;22475;-73
2023/10/18 05:22:23;;;;;;;13.70;12.40;;;2.80;1.00;;;;;;5109056;27;20239;-76
2023/10/18 05:25:11;;;;;;;14.23;12.88;;;2.80;1.00;;;;;;5099262;27;20266;-74
2023/10/18 05:27:45;;;;;;;21.42;18.35;;;2.80;1.00;;;;;;5111799;27;20243;-74
2023/10/18 05:30:15;;;;;;;14.63;13.23;;;2.80;1.00;;;;;;5106750;27;20244;-75
2023/10/18 05:32:49;;;;;;;14.50;12.32;;;2.80;1.00;;;;;;5093765;27;20239;-73
2023/10/18 05:35:26;;;;;;;13.52;12.10;;;2.80;1.00;;;;;;5105112;27;20243;-73
2023/10/18 05:38:18;;;;;;;15.80;14.18;;;2.70;1.00;;;;;;5106682;27;20275;-77
2023/10/18 05:40:56;;;;;;;15.63;13.95;;;2.70;1.00;;;;;;5111211;27;20293;-73
2023/10/18 05:43:23;;;;;;;14.40;13.00;;;2.70;1.00;;;;;;5115207;27;20310;-72
2023/10/18 05:45:55;;;;;;;14.32;12.55;;;2.70;1.00;;;;;;5107245;27;20228;-71
2023/10/18 05:48:24;;;;;;;16.83;13.48;;;2.80;1.00;;;;;;5110088;27;20333;-73
2023/10/18 05:51:03;;;;;;;14.43;13.02;;;2.80;1.00;;;;;;5111265;27;20228;-74
2023/10/18 05:53:33;;;;;;;14.95;13.55;;;2.90;1.00;;;;;;5108521;27;20337;-75
2023/10/18 05:56:00;;;;;;;15.38;12.85;;;2.90;1.00;;;;;;5100457;27;20306;-76
2023/10/18 05:58:27;;;;;;;16.95;15.23;;;2.90;1.00;;;;;;5107066;27;20239;-72
2023/10/18 06:00:57;;;;;;;13.85;12.48;;;2.90;1.00;;;;;;5110847;27;20230;-74
2023/10/18 06:03:38;;;;;;;14.80;13.30;;;2.90;1.00;;;;;;5111285;27;20289;-72
2023/10/18 06:06:06;;;;;;;16.65;13.43;;;2.90;1.00;;;;;;5107327;27;21075;-72
2023/10/18 06:08:37;;;;;;;17.38;14.05;;;2.90;1.00;;;;;;5105887;27;20239;-75
2023/10/18 06:11:09;;;;;;;15.57;13.98;;;2.90;1.00;;;;;;5108167;27;20231;-73
2023/10/18 06:13:37;;;;;;;18.75;16.73;;;2.90;1.00;;;;;;5108950;27;20323;-73
2023/10/18 06:16:18;;;;;;;18.83;16.27;;;2.80;1.00;;;;;;5111483;27;20284;-71
2023/10/18 06:18:48;;;;;;;19.42;15.80;;;2.90;1.00;;;;;;5106038;27;20246;-71
2023/10/18 06:21:18;;;;;;;19.33;15.63;;;2.90;1.00;;;;;;5105813;27;20235;-75
2023/10/18 06:23:55;;;;;;;23.60;14.98;;;2.90;1.00;;;;;;5106973;27;20270;-71
2023/10/18 06:26:33;;;;;;;16.00;14.30;;;3.00;1.00;;;;;;5105910;27;20248;-73
2023/10/18 06:29:08;;;;;;;15.95;14.35;;;3.10;1.00;;;;;;5087289;27;20277;-72
2023/10/18 06:31:40;;;;;;;21.38;15.15;;;3.10;1.00;;;;;;5107559;27;20296;-73
2023/10/18 06:34:10;;;;;;;18.15;16.02;;;3.10;1.00;;;;;;5104964;27;20258;-72
2023/10/18 06:36:39;;;;;;;15.10;13.60;;;3.20;1.00;;;;;;5106725;27;20235;-71
2023/10/18 06:39:07;;;;;;;16.30;14.60;;;3.30;1.00;;;;;;5108762;27;20239;-72
2023/10/18 06:41:36;;;;;;;15.00;13.50;;;3.40;1.00;;;;;;5107378;27;20238;-74
2023/10/18 06:44:03;;;;;;;15.43;12.70;;;3.50;1.00;;;;;;5105671;27;20243;-75
2023/10/18 06:46:33;;;;;;;16.40;13.45;;;3.50;1.00;;;;;;5104109;27;20235;-76
2023/10/18 06:49:00;;;;;;;16.67;14.10;;;3.60;1.00;;;;;;5098830;27;20246;-75
2023/10/18 06:51:33;;;;;;;17.63;13.00;;;3.80;1.00;;;;;;5103608;27;20246;-75
2023/10/18 06:54:03;;;;;;;18.70;13.18;;;4.00;1.00;;;;;;5106800;27;20260;-71
2023/10/18 06:56:32;;;;;;;14.38;12.68;;;4.10;1.00;;;;;;5101594;27;20235;-73
2023/10/18 06:59:06;;;;;;;14.65;13.07;;;4.20;1.00;;;;;;5085491;27;21428;-72
2023/10/18 07:01:34;;;;;;;13.98;11.95;;;4.30;1.00;;;;;;5103496;27;20234;-71
2023/10/18 07:04:01;;;;;;;14.43;12.82;;;4.40;1.00;;;;;;5109250;27;20236;-73
2023/10/18 07:06:35;;;;;;;13.57;11.93;;;4.50;1.00;;;;;;5097565;27;20352;-73
2023/10/18 07:09:10;;;;;;;12.85;11.65;;;4.60;1.00;;;;;;5107257;27;21027;-71
2023/10/18 07:11:42;;;;;;;13.95;12.50;;;4.70;1.00;;;;;;5102222;27;20286;-72
2023/10/18 07:14:12;;;;;;;15.57;13.07;;;4.80;1.00;;;;;;5101143;27;20240;-72
2023/10/18 07:16:41;;;;;;;14.88;13.18;;;4.90;1.00;;;;;;5106326;27;20242;-71
2023/10/18 07:19:21;;;;;;;17.60;12.05;;;5.00;1.00;;;;;;5103385;27;20239;-72
2023/10/18 07:21:48;;;;;;;15.00;13.30;;;5.10;1.00;;;;;;5101193;27;20232;-73
2023/10/18 07:24:17;;;;;;;11.68;10.48;;;5.30;1.00;;;;;;5104691;27;20258;-74
2023/10/18 07:26:47;;;;;;;16.88;11.10;;;5.40;1.00;;;;;;5101416;27;20227;-72
2023/10/18 07:29:14;;;;;;;15.38;12.02;;;5.50;1.00;;;;;;5101609;27;20235;-72
2023/10/18 07:31:44;;;;;;;13.20;11.80;;;5.60;1.00;;;;;;5107829;27;20239;-74
2023/10/18 07:34:17;;;;;;;15.48;13.88;;;5.80;1.00;;;;;;5102004;27;20402;-73
2023/10/18 07:36:45;;;;;;;13.55;11.13;;;5.90;1.00;;;;;;5096384;27;20246;-74
2023/10/18 07:39:12;;;;;;;13.32;11.55;;;6.00;1.00;;;;;;5090190;27;20239;-74
2023/10/18 07:41:40;;;;;;;12.82;11.40;;;6.10;1.00;;;;;;5105959;27;20235;-74
2023/10/18 07:44:09;;;;;;;12.65;11.38;;;6.30;1.00;;;;;;5103321;27;20236;-72
2023/10/18 07:46:39;;;;;;;12.77;11.52;;;6.40;1.00;;;;;;5103271;27;20237;-73
2023/10/18 07:49:11;;;;;;;13.10;11.50;;;6.60;1.00;;;;;;5104042;27;20241;-73
2023/10/18 07:51:43;;;;;;;13.95;12.55;;;6.60;1.00;;;;;;5082738;28;20243;-72
2023/10/18 07:54:14;;;;;;;13.38;12.00;;;6.70;1.00;;;;;;5107301;27;20928;-72
2023/10/18 07:56:48;;;;;;;13.95;12.70;;;6.90;1.00;;;;;;5104092;27;20242;-72
2023/10/18 07:59:30;;;;;;;15.55;13.93;;;7.00;1.00;;;;;;5086140;27;20780;-72
2023/10/18 08:04:40;;;;;;;15.43;13.85;;;7.30;1.00;;;;;;5092483;27;20804;-74
2023/10/18 08:07:10;;;;;;;15.38;13.88;;;7.50;1.00;;;;;;5104348;27;20619;-72
2023/10/18 08:09:40;;;;;;;15.70;14.10;;;7.60;1.00;;;;;;5105518;27;20343;-74
2023/10/18 08:12:19;;;;;;;14.82;13.40;;;7.70;1.00;;;;;;5105370;27;20522;-73
2023/10/18 08:14:50;;;;;;;12.85;11.55;;;7.80;1.00;;;;;;5103520;27;20231;-73
2023/10/18 08:17:30;;;;;;;13.90;12.40;;;7.90;1.00;;;;;;5087079;27;20244;-73
2023/10/18 08:20:17;;;;;;;16.30;13.33;;;8.10;1.00;;;;;;5108088;27;20726;-72
2023/10/18 08:22:44;;;;;;;13.17;11.87;;;8.30;1.00;;;;;;5108626;27;22269;-73
2023/10/18 08:25:23;;;;;;;16.10;13.90;;;8.70;1.00;;;;;;5093118;27;20477;-74
2023/10/18 08:27:51;;;;;;;13.80;12.23;;;8.90;1.00;;;;;;5097548;27;20503;-73
2023/10/18 08:30:24;;;;;;;13.00;11.70;;;9.10;1.00;;;;;;5105267;27;21121;-73
2023/10/18 08:32:51;;;;;;;13.17;11.70;;;9.30;1.00;;;;;;5102874;27;20458;-73
2023/10/18 08:35:20;;;;;;;14.47;12.97;;;9.60;1.00;;;;;;5107748;27;20473;-72
2023/10/18 08:37:50;;;;;;;13.40;12.20;;;10.50;1.00;;;;;;5107042;27;20554;-73
2023/10/18 08:40:27;;;;;;;13.13;11.80;;;11.80;1.00;;;;;;5110551;27;20495;-74
2023/10/18 08:43:12;;;;;;;12.07;10.83;;;12.40;1.00;;;;;;5103959;27;21135;-72
2023/10/18 08:45:46;;;;;;;13.03;11.83;;;12.00;1.00;;;;;;5084525;27;20453;-74
2023/10/18 08:48:16;;;;;;;14.53;13.13;;;11.70;1.00;;;;;;5103074;27;20454;-75
2023/10/18 08:50:43;;;;;;;14.47;12.90;;;11.60;1.00;;;;;;5103624;27;20462;-72
2023/10/18 08:53:15;;;;;;;13.60;11.90;;;11.30;1.00;;;;;;5106513;27;20493;-73
2023/10/18 08:55:46;;;;;;;13.83;12.57;;;11.20;1.00;;;;;;5108455;27;20461;-72
2023/10/18 08:58:22;;;;;;;12.70;11.40;;;11.10;1.00;;;;;;5108019;27;20600;-73
2023/10/18 09:01:03;;;;;;;12.13;10.87;;;11.00;1.00;;;;;;5104534;27;20450;-72
2023/10/18 09:03:32;;;;;;;11.97;10.77;;;11.20;1.00;;;;;;5104329;27;20470;-74
2023/10/18 09:06:04;;;;;;;13.93;12.17;;;11.20;1.00;;;;;;5104179;27;20528;-74
2023/10/18 09:08:35;;;;;;;12.17;11.07;;;11.20;1.00;;;;;;5104488;27;20818;-73
2023/10/18 09:11:04;;;;;;;15.50;11.27;;;11.20;1.00;;;;;;5106784;27;20925;-74
2023/10/18 09:13:37;;;;;;;10.13;9.17;;;11.00;1.00;;;;;;5102988;27;20588;-75
2023/10/18 09:16:11;;;;;;;11.00;9.90;;;10.80;1.00;;;;;;5104874;27;20539;-75
2023/10/18 09:18:39;;;;;;;12.93;11.43;;;10.70;1.00;;;;;;5104806;27;20433;-75
2023/10/18 09:21:17;;;;;;;11.60;9.83;;;10.60;1.00;;;;;;5095619;27;21275;-74
2023/10/18 09:23:47;;;;;;;12.80;11.60;;;10.80;1.00;;;;;;5100982;27;20553;-72
2023/10/18 09:26:26;;;;;;;12.13;10.80;;;11.00;1.00;;;;;;5104955;27;20503;-75
2023/10/18 09:28:59;;;;;;;10.87;9.93;;;11.20;1.00;;;;;;5085349;28;20471;-74
2023/10/18 09:31:28;;;;;;;12.50;9.60;;;11.30;1.00;;;;;;5080172;28;21051;-72
2023/10/18 09:33:58;;;;;;;9.83;8.87;;;11.70;1.00;;;;;;5083290;28;21236;-71
2023/10/18 09:36:27;;;;;;;10.40;9.30;;;11.90;1.00;;;;;;5084414;28;20839;-72
2023/10/18 09:38:55;;;;;;;10.30;9.03;;;12.00;1.00;;;;;;5082971;28;20454;-72
2023/10/18 09:41:22;;;;;;;9.47;8.57;;;12.00;1.00;;;;;;5084080;28;20469;-74
2023/10/18 09:43:51;;;;;;;9.07;8.17;;;11.90;1.00;;;;;;5081399;28;20499;-71
2023/10/18 09:46:20;;;;;;;10.23;9.00;;;11.90;1.00;;;;;;5081592;28;20470;-73
2023/10/18 09:48:48;;;;;;;9.10;8.30;;;11.90;1.00;;;;;;5079114;28;20445;-71
2023/10/18 09:51:21;;;;;;;8.83;8.07;;;12.10;1.00;;;;;;5084023;28;20466;-73
2023/10/18 09:53:50;;;;;;;10.70;9.60;;;12.20;1.00;;;;;;5081378;28;21056;-73
2023/10/18 09:56:24;;;;;;;9.37;8.57;;;12.10;1.00;;;;;;5103135;27;20439;-72
2023/10/18 09:59:05;;;;;;;10.17;9.13;;;11.90;1.00;;;;;;5091659;27;20457;-73
2023/10/18 10:01:55;;;;;;;7.93;7.23;;;11.80;1.00;;;;;;5103246;27;20490;-75
2023/10/18 10:04:25;;;;;;;7.90;7.20;;;11.90;1.00;;;;;;5101126;27;20469;-75
2023/10/18 10:06:55;;;;;;;8.67;7.87;;;12.10;1.00;;;;;;5099404;27;20465;-77
2023/10/18 10:09:29;;;;;;;8.30;7.60;;;12.20;1.00;;;;;;5103018;27;20597;-72
2023/10/18 10:11:56;;;;;;;9.10;8.20;;;12.20;1.00;;;;;;5102079;27;20811;-74
2023/10/18 10:14:23;;;;;;;8.33;7.53;;;12.40;1.00;;;;;;5101396;27;20543;-72
2023/10/18 10:16:57;;;;;;;8.73;7.83;;;12.40;1.00;;;;;;5106482;27;20501;-73
2023/10/18 10:19:29;;;;;;;9.07;7.63;;;12.60;1.00;;;;;;5106547;27;20472;-73
2023/10/18 10:22:04;;;;;;;9.00;7.20;;;12.60;1.00;;;;;;5092381;27;20616;-71
2023/10/18 10:24:35;;;;;;;7.70;6.40;;;12.80;1.00;;;;;;5102734;27;20553;-72
2023/10/18 10:27:27;;;;;;;6.73;6.13;;;12.80;1.00;;;;;;5100966;27;20497;-71
2023/10/18 10:29:56;;;;;;;5.80;5.13;;;12.70;1.00;;;;;;5104124;27;20454;-72
2023/10/18 10:32:24;;;;;;;6.30;5.70;;;12.70;1.00;;;;;;5103550;27;20458;-72
2023/10/18 10:35:14;;;;;;;5.87;5.37;;;12.70;1.00;;;;;;5094990;27;21051;-72
2023/10/18 10:37:47;;;;;;;6.27;5.77;;;12.90;1.00;;;;;;5100592;27;20544;-74
2023/10/18 10:40:35;;;;;;;6.30;5.80;;;13.10;1.00;;;;;;5100768;27;20910;-72
2023/10/18 10:43:04;;;;;;;5.60;5.13;;;13.20;1.00;;;;;;5103821;27;20461;-72
2023/10/18 10:45:35;;;;;;;7.67;6.00;;;13.40;1.00;;;;;;5094976;27;20513;-72
2023/10/18 10:48:31;;;;;;;4.60;4.00;;;13.60;1.00;;;;;;5101260;27;21062;-73
2023/10/18 10:51:11;;;;;;;4.93;4.40;;;13.70;1.00;;;;;;5089969;27;20451;-72
2023/10/18 10:53:44;;;;;;;5.53;5.13;;;13.70;1.00;;;;;;5106146;27;20485;-73
2023/10/18 10:56:19;;;;;;;5.43;4.90;;;13.60;1.00;;;;;;5105561;27;20551;-77
2023/10/18 10:58:54;;;;;;;5.07;4.60;;;13.80;1.00;;;;;;5096208;27;20443;-76
2023/10/18 11:01:39;;;;;;;6.23;5.17;;;13.60;1.00;;;;;;5103531;27;20445;-73
2023/10/18 11:04:10;;;;;;;10.20;9.20;;;13.80;1.00;;;;;;5095835;27;20551;-75
2023/10/18 11:06:43;;;;;;;5.20;4.70;;;14.10;1.00;;;;;;5105233;27;20477;-74
2023/10/18 11:09:15;;;;;;;5.70;5.20;;;14.10;1.00;;;;;;5106831;27;21062;-74
2023/10/18 11:11:43;;;;;;;5.03;4.53;;;14.30;1.00;;;;;;5106761;27;20463;-74
2023/10/18 11:14:17;;;;;;;5.40;4.90;;;14.50;1.00;;;;;;5108798;27;20560;-75
2023/10/18 11:16:45;;;;;;;5.93;5.33;;;14.80;1.00;;;;;;5106013;27;20477;-75
2023/10/18 11:19:15;;;;;;;6.93;5.60;;;15.80;1.00;;;;;;5102932;27;20464;-76
2023/10/18 11:21:44;;;;;;;8.23;5.20;;;16.20;1.00;;;;;;5105745;27;20555;-75
2023/10/18 11:24:13;;;;;;;5.23;4.73;;;15.80;1.00;;;;;;5103873;27;20996;-75
2023/10/18 11:26:42;;;;;;;5.27;4.87;;;15.70;1.00;;;;;;5104479;27;20975;-74
2023/10/18 11:29:12;;;;;;;9.10;5.17;;;15.70;1.00;;;;;;5104635;27;20434;-74
2023/10/18 11:31:44;;;;;;;5.30;4.80;;;15.70;1.00;;;;;;5084631;27;20474;-75
2023/10/18 11:34:14;;;;;;;3.90;3.60;;;15.70;1.00;;;;;;5091835;27;20563;-76
2023/10/18 11:36:44;;;;;;;6.37;4.43;;;15.70;1.00;;;;;;5107332;27;20495;-76
2023/10/18 11:39:25;;;;;;;5.17;3.90;;;15.70;1.00;;;;;;5100276;27;20527;-79
2023/10/18 11:41:53;;;;;;;5.03;4.63;;;16.00;1.00;;;;;;5107719;27;20471;-79
2023/10/18 11:44:30;;;;;;;5.00;4.50;;;16.30;1.00;;;;;;5105676;27;20913;-78
2023/10/18 11:47:03;;;;;;;5.33;4.33;;;16.80;1.00;;;;;;5103578;27;20477;-75
2023/10/18 11:49:39;;;;;;;17.00;15.30;;;16.90;1.00;;;;;;5108414;27;20446;-79
2023/10/18 11:52:14;;;;;;;5.27;4.43;;;17.50;1.00;;;;;;5104136;27;20457;-76
2023/10/18 11:54:43;;;;;;;5.40;4.87;;;18.30;1.00;;;;;;5092659;27;20458;-80
2023/10/18 11:57:28;;;;;;;5.03;4.53;;;18.60;1.00;;;;;;5105218;27;20481;-79
2023/10/18 11:59:56;;;;;;;5.10;4.33;;;18.50;1.00;;;;;;5090926;27;20887;-78
2023/10/18 12:02:27;;;;;;;5.20;4.70;;;18.70;1.00;;;;;;5104904;27;20918;-77
2023/10/18 12:04:55;;;;;;;5.50;5.00;;;19.10;1.00;;;;;;5087531;28;20457;-77
2023/10/18 12:07:24;;;;;;;4.80;4.50;;;19.90;1.00;;;;;;5106113;27;20482;-77
2023/10/18 12:09:52;;;;;;;5.33;4.83;;;21.00;1.00;;;;;;5097627;27;20448;-75
2023/10/18 12:12:20;;;;;;;4.60;4.20;;;22.50;1.00;;;;;;5109802;27;20471;-80
2023/10/18 12:14:50;;;;;;;5.70;5.20;;;22.40;1.00;;;;;;5112102;27;20454;-80
2023/10/18 12:17:17;;;;;;;5.00;4.60;;;21.90;1.00;;;;;;5108974;27;20477;-77
2023/10/18 12:19:44;;;;;;;6.57;5.80;;;21.40;1.00;;;;;;5106182;27;20526;-77
2023/10/18 12:22:15;;;;;;;5.13;4.63;;;20.50;1.00;;;;;;5110087;27;20480;-77
2023/10/18 12:24:45;;;;;;;6.93;6.23;;;19.60;1.00;;;;;;5109917;27;20459;-76
2023/10/18 12:27:33;;;;;;;5.03;4.63;;;18.70;1.00;;;;;;5109145;27;20535;-77
2023/10/18 12:30:09;;;;;;;7.30;6.50;;;17.80;1.00;;;;;;5092003;27;20958;-76
2023/10/18 12:32:42;;;;;;;6.30;5.80;;;17.00;1.00;;;;;;5108772;27;20886;-75
2023/10/18 12:35:13;;;;;;;5.67;5.17;;;16.80;1.00;;;;;;5109847;27;20484;-77
2023/10/18 12:37:41;;;;;;;5.80;5.30;;;16.70;1.00;;;;;;5105990;27;20579;-78
2023/10/18 12:40:28;;;;;;;6.63;5.80;;;16.60;1.00;;;;;;5108179;27;20962;-73
2023/10/18 12:42:56;;;;;;;5.40;5.00;;;16.30;1.00;;;;;;5100928;27;20489;-73
2023/10/18 12:45:23;;;;;;;14.70;13.30;;;16.30;1.00;;;;;;5108232;27;20461;-73
2023/10/18 12:47:51;;;;;;;7.60;6.73;;;16.50;1.00;;;;;;5106704;27;20450;-73
2023/10/18 12:50:19;;;;;;;6.10;5.60;;;16.30;1.00;;;;;;5088975;27;20959;-75
2023/10/18 12:52:50;;;;;;;7.63;6.60;;;16.30;1.00;;;;;;5108388;27;20477;-73
2023/10/18 12:55:33;;;;;;;6.27;5.73;;;16.50;1.00;;;;;;5107434;27;20433;-76
2023/10/18 12:58:00;;;;;;;5.27;4.80;;;16.50;1.00;;;;;;5104879;27;20461;-73
2023/10/18 13:00:34;;;;;;;5.73;5.27;;;16.40;1.00;;;;;;5107583;27;20541;-76
2023/10/18 13:05:56;;;;;;;5.83;5.20;;;15.90;1.00;;;;;;5020948;28;20683;-71
2023/10/18 13:08:22;;;;;;;6.70;6.00;;;15.60;1.00;;;;;;5087100;27;20555;-73
2023/10/18 13:11:44;;;;;;;7.93;6.40;;;15.70;1.00;;;;;;5103572;27;20447;-72
2023/10/18 13:13:45;;;;;;;7.23;6.00;;;15.70;1.00;;;;;;5105316;27;20477;-74
2023/10/18 13:16:15;;;;;;;6.00;5.50;;;15.60;1.00;;;;;;5109883;27;20506;-71
2023/10/18 13:18:42;;;;;;;7.10;5.70;;;15.30;1.00;;;;;;5105783;27;20923;-73